SVA156 OEDF-OESB
Flight info
| Callsign | SVA156 |
|---|---|
| Flight time | 1h 19m |
| Altitude | 35000 |
| Route | LADNA N318 VELAM P708 VUTAN N318 ALSEM/N0450F370 N318 OVONA/N0446F350 N318 KAPUM Z522 ALNEV/N0453F370 |
| Aircraft | A321/M-SDE3FGHIRWY/LB1 |
Departure
| Time | 2026-04-23 11:46 |
|---|---|
| Airport | King Fahd International Airport (OEDF) |
Arrival
| Time | 2026-04-23 13:05 |
|---|---|
| Airport | Shaibah Airport (OESB) |
| Time | Latitude | Longitude | Altitude | Speed | Heading |
|---|---|---|---|---|---|
| 2026-04-23 11:25 | 26.45393 | 49.81793 | 85 ft | 0 kts | 165° |
| 2026-04-23 11:36 | 26.45395 | 49.81792 | 85 ft | 2 kts | 165° |
| 2026-04-23 11:36 | 26.45429 | 49.81782 | 87 ft | 4 kts | 165° |
| 2026-04-23 11:37 | 26.45442 | 49.81778 | 88 ft | 3 kts | 166° |
| 2026-04-23 11:37 | 26.45472 | 49.81781 | 89 ft | 4 kts | 229° |
| 2026-04-23 11:37 | 26.45481 | 49.81797 | 87 ft | 4 kts | 253° |
| 2026-04-23 11:37 | 26.45488 | 49.81823 | 89 ft | 2 kts | 255° |
| 2026-04-23 11:38 | 26.45488 | 49.81825 | 89 ft | 0 kts | 255° |
| 2026-04-23 11:41 | 26.45488 | 49.81824 | 89 ft | 1 kts | 255° |
| 2026-04-23 11:42 | 26.45477 | 49.81779 | 89 ft | 12 kts | 255° |
| 2026-04-23 11:42 | 26.45458 | 49.81704 | 85 ft | 0 kts | 255° |
| 2026-04-23 11:42 | 26.45449 | 49.81666 | 86 ft | 11 kts | 256° |
| 2026-04-23 11:42 | 26.45441 | 49.81629 | 89 ft | 0 kts | 256° |
| 2026-04-23 11:43 | 26.45437 | 49.81613 | 89 ft | 7 kts | 256° |
| 2026-04-23 11:43 | 26.45426 | 49.81550 | 88 ft | 0 kts | 267° |
| 2026-04-23 11:43 | 26.45427 | 49.81518 | 87 ft | 9 kts | 275° |
| 2026-04-23 11:44 | 26.45473 | 49.81421 | 90 ft | 16 kts | 322° |
| 2026-04-23 11:44 | 26.45481 | 49.81415 | 89 ft | 3 kts | 328° |
| 2026-04-23 11:44 | 26.45540 | 49.81392 | 89 ft | 16 kts | 342° |
| 2026-04-23 11:44 | 26.45639 | 49.81363 | 88 ft | 25 kts | 345° |
| 2026-04-23 11:45 | 26.45781 | 49.81320 | 85 ft | 34 kts | 344° |
| 2026-04-23 11:45 | 26.45928 | 49.81273 | 88 ft | 40 kts | 344° |
| 2026-04-23 11:45 | 26.46237 | 49.81175 | 91 ft | 83 kts | 345° |
| 2026-04-23 11:45 | 26.46686 | 49.81043 | 90 ft | 111 kts | 345° |
| 2026-04-23 11:46 | 26.47511 | 49.80787 | 89 ft | 170 kts | 344° |
| 2026-04-23 11:46 | 26.48698 | 49.80435 | 838 ft | 172 kts | 349° |
| 2026-04-23 11:46 | 26.49790 | 49.80100 | 1656 ft | 158 kts | 348° |
| 2026-04-23 11:46 | 26.50879 | 49.79764 | 1944 ft | 175 kts | 347° |
| 2026-04-23 11:47 | 26.52144 | 49.79375 | 2097 ft | 197 kts | 348° |
| 2026-04-23 11:47 | 26.52699 | 49.79204 | 2154 ft | 205 kts | 348° |
| 2026-04-23 11:47 | 26.53859 | 49.78851 | 1768 ft | 244 kts | 347° |
| 2026-04-23 11:48 | 26.55655 | 49.78305 | 1602 ft | 285 kts | 346° |
| 2026-04-23 11:48 | 26.57599 | 49.77912 | 2474 ft | 276 kts | 5° |
| 2026-04-23 11:48 | 26.59337 | 49.78595 | 3729 ft | 266 kts | 34° |
| 2026-04-23 11:48 | 26.60253 | 49.79685 | 4257 ft | 274 kts | 58° |
| 2026-04-23 11:49 | 26.60367 | 49.79908 | 4338 ft | 273 kts | 60° |
| 2026-04-23 11:49 | 26.61023 | 49.82012 | 4481 ft | 302 kts | 88° |
| 2026-04-23 11:49 | 26.60540 | 49.84244 | 5348 ft | 294 kts | 122° |
| 2026-04-23 11:49 | 26.59361 | 49.86075 | 6135 ft | 293 kts | 127° |
| 2026-04-23 11:50 | 26.58590 | 49.88203 | 6763 ft | 303 kts | 100° |
| 2026-04-23 11:50 | 26.58566 | 49.90567 | 6955 ft | 307 kts | 83° |
| 2026-04-23 11:50 | 26.58891 | 49.92562 | 6998 ft | 307 kts | 76° |
| 2026-04-23 11:50 | 26.59409 | 49.94742 | 7002 ft | 306 kts | 73° |
| 2026-04-23 11:51 | 26.59901 | 49.96665 | 7001 ft | 307 kts | 74° |
| 2026-04-23 11:51 | 26.60447 | 49.98917 | 7003 ft | 306 kts | 75° |
| 2026-04-23 11:51 | 26.60943 | 50.01187 | 7000 ft | 305 kts | 77° |
| 2026-04-23 11:51 | 26.61266 | 50.02806 | 6998 ft | 306 kts | 78° |
| 2026-04-23 11:52 | 26.61630 | 50.04758 | 6999 ft | 305 kts | 78° |
| 2026-04-23 11:52 | 26.61972 | 50.06682 | 6998 ft | 305 kts | 79° |
| 2026-04-23 11:52 | 26.62394 | 50.09126 | 6997 ft | 306 kts | 79° |
| 2026-04-23 11:52 | 26.62757 | 50.11248 | 6997 ft | 306 kts | 79° |
| 2026-04-23 11:53 | 26.63157 | 50.13234 | 6995 ft | 306 kts | 76° |
| 2026-04-23 11:53 | 26.63296 | 50.15565 | 6985 ft | 300 kts | 105° |
| 2026-04-23 11:53 | 26.62456 | 50.17634 | 6991 ft | 292 kts | 130° |
| 2026-04-23 11:53 | 26.61119 | 50.19334 | 6990 ft | 288 kts | 141° |
| 2026-04-23 11:54 | 26.59687 | 50.20930 | 6989 ft | 294 kts | 138° |
| 2026-04-23 11:54 | 26.58290 | 50.22649 | 6986 ft | 295 kts | 136° |
| 2026-04-23 11:54 | 26.56964 | 50.24358 | 6984 ft | 296 kts | 136° |
| 2026-04-23 11:54 | 26.55626 | 50.26105 | 6983 ft | 296 kts | 135° |
| 2026-04-23 11:55 | 26.54267 | 50.27871 | 6981 ft | 296 kts | 136° |
| 2026-04-23 11:55 | 26.52913 | 50.29612 | 6981 ft | 296 kts | 136° |
| 2026-04-23 11:55 | 26.51575 | 50.31317 | 6981 ft | 296 kts | 136° |
| 2026-04-23 11:55 | 26.50201 | 50.33063 | 6975 ft | 296 kts | 136° |
| 2026-04-23 11:56 | 26.48857 | 50.34762 | 6973 ft | 296 kts | 136° |
| 2026-04-23 11:56 | 26.47476 | 50.36506 | 6973 ft | 297 kts | 135° |
| 2026-04-23 11:56 | 26.46442 | 50.38188 | 6965 ft | 293 kts | 126° |
| 2026-04-23 11:56 | 26.45707 | 50.40324 | 7155 ft | 297 kts | 112° |
| 2026-04-23 11:57 | 26.45093 | 50.42555 | 7895 ft | 298 kts | 111° |
| 2026-04-23 11:57 | 26.44461 | 50.44782 | 8481 ft | 304 kts | 114° |
| 2026-04-23 11:57 | 26.43828 | 50.47005 | 9113 ft | 307 kts | 114° |
| 2026-04-23 11:57 | 26.43169 | 50.49335 | 9780 ft | 311 kts | 112° |
| 2026-04-23 11:58 | 26.42524 | 50.51626 | 10165 ft | 324 kts | 113° |
| 2026-04-23 11:58 | 26.41810 | 50.54146 | 10286 ft | 346 kts | 112° |
| 2026-04-23 11:58 | 26.41078 | 50.56728 | 10522 ft | 360 kts | 112° |
| 2026-04-23 11:58 | 26.40310 | 50.59464 | 11008 ft | 366 kts | 112° |
| 2026-04-23 11:59 | 26.39549 | 50.62190 | 11553 ft | 371 kts | 112° |
| 2026-04-23 11:59 | 26.38785 | 50.64910 | 12162 ft | 375 kts | 112° |
| 2026-04-23 11:59 | 26.37995 | 50.67707 | 12730 ft | 379 kts | 112° |
| 2026-04-23 11:59 | 26.37200 | 50.70510 | 13294 ft | 383 kts | 112° |
| 2026-04-23 12:00 | 26.36378 | 50.73398 | 13851 ft | 387 kts | 112° |
| 2026-04-23 12:00 | 26.35568 | 50.76237 | 14286 ft | 392 kts | 112° |
| 2026-04-23 12:00 | 26.34730 | 50.79162 | 14772 ft | 397 kts | 112° |
| 2026-04-23 12:00 | 26.33905 | 50.82048 | 15259 ft | 400 kts | 112° |
| 2026-04-23 12:01 | 26.33053 | 50.85032 | 15761 ft | 404 kts | 112° |
| 2026-04-23 12:01 | 26.32197 | 50.88030 | 16249 ft | 408 kts | 112° |
| 2026-04-23 12:01 | 26.31331 | 50.91055 | 16737 ft | 411 kts | 112° |
| 2026-04-23 12:01 | 26.30428 | 50.94067 | 17193 ft | 413 kts | 116° |
| 2026-04-23 12:02 | 26.29162 | 50.96957 | 17663 ft | 412 kts | 124° |
| 2026-04-23 12:02 | 26.27757 | 50.99750 | 18119 ft | 415 kts | 124° |
| 2026-04-23 12:02 | 26.26331 | 51.02572 | 18522 ft | 418 kts | 124° |
| 2026-04-23 12:02 | 26.24898 | 51.05409 | 18923 ft | 421 kts | 124° |
| 2026-04-23 12:03 | 26.23466 | 51.08252 | 19316 ft | 424 kts | 124° |
| 2026-04-23 12:03 | 26.22009 | 51.11153 | 19662 ft | 428 kts | 123° |
| 2026-04-23 12:03 | 26.20565 | 51.14034 | 20033 ft | 431 kts | 123° |
| 2026-04-23 12:03 | 26.19105 | 51.16946 | 20398 ft | 433 kts | 123° |
| 2026-04-23 12:04 | 26.17617 | 51.19910 | 20761 ft | 435 kts | 123° |
| 2026-04-23 12:04 | 26.16132 | 51.22858 | 21113 ft | 437 kts | 123° |
| 2026-04-23 12:04 | 26.14639 | 51.25814 | 21447 ft | 440 kts | 123° |
| 2026-04-23 12:04 | 26.13141 | 51.28778 | 21817 ft | 442 kts | 123° |
| 2026-04-23 12:05 | 26.11634 | 51.31764 | 22169 ft | 444 kts | 123° |
| 2026-04-23 12:05 | 26.10116 | 51.34769 | 22504 ft | 446 kts | 123° |
| 2026-04-23 12:05 | 26.08596 | 51.37772 | 22858 ft | 448 kts | 123° |
| 2026-04-23 12:05 | 26.07049 | 51.40827 | 23258 ft | 449 kts | 123° |
| 2026-04-23 12:06 | 26.05558 | 51.43777 | 23788 ft | 441 kts | 123° |
| 2026-04-23 12:06 | 26.04906 | 51.45072 | 24247 ft | 432 kts | 123° |
| 2026-04-23 12:06 | 26.02951 | 51.48963 | 25691 ft | 403 kts | 123° |
| 2026-04-23 12:07 | 26.02108 | 51.50641 | 26325 ft | 392 kts | 124° |
| 2026-04-23 12:07 | 26.02030 | 51.50795 | 26362 ft | 392 kts | 124° |
| 2026-04-23 12:07 | 26.00703 | 51.53427 | 26950 ft | 388 kts | 124° |
| 2026-04-23 12:07 | 25.99384 | 51.56017 | 27317 ft | 389 kts | 124° |
| 2026-04-23 12:08 | 25.98047 | 51.58625 | 27663 ft | 390 kts | 124° |
| 2026-04-23 12:08 | 25.96707 | 51.61238 | 28003 ft | 392 kts | 124° |
| 2026-04-23 12:08 | 25.95349 | 51.63894 | 28306 ft | 395 kts | 123° |
| 2026-04-23 12:08 | 25.93993 | 51.66549 | 28582 ft | 397 kts | 123° |
| 2026-04-23 12:09 | 25.92626 | 51.69227 | 28826 ft | 401 kts | 123° |
| 2026-04-23 12:09 | 25.91230 | 51.71963 | 29070 ft | 405 kts | 123° |
| 2026-04-23 12:09 | 25.89852 | 51.74681 | 29304 ft | 408 kts | 123° |
| 2026-04-23 12:09 | 25.88477 | 51.77457 | 29563 ft | 412 kts | 122° |
| 2026-04-23 12:10 | 25.87109 | 51.80265 | 29825 ft | 414 kts | 122° |
| 2026-04-23 12:10 | 25.86190 | 51.82164 | 30019 ft | 415 kts | 122° |
| 2026-04-23 12:10 | 25.84368 | 51.85931 | 30367 ft | 416 kts | 122° |
| 2026-04-23 12:10 | 25.83017 | 51.88772 | 30602 ft | 419 kts | 120° |
| 2026-04-23 12:11 | 25.82159 | 51.90699 | 30757 ft | 420 kts | 119° |
| 2026-04-23 12:11 | 25.80908 | 51.93670 | 30971 ft | 422 kts | 117° |
| 2026-04-23 12:11 | 25.79704 | 51.96636 | 31202 ft | 424 kts | 117° |
| 2026-04-23 12:11 | 25.78511 | 51.99601 | 31388 ft | 425 kts | 116° |
| 2026-04-23 12:12 | 25.77289 | 52.02610 | 31549 ft | 428 kts | 117° |
| 2026-04-23 12:12 | 25.76038 | 52.05639 | 31715 ft | 430 kts | 117° |
| 2026-04-23 12:12 | 25.74755 | 52.08700 | 31861 ft | 433 kts | 118° |
| 2026-04-23 12:12 | 25.73484 | 52.11704 | 31988 ft | 436 kts | 118° |
| 2026-04-23 12:13 | 25.72199 | 52.14726 | 32129 ft | 439 kts | 118° |
| 2026-04-23 12:13 | 25.70890 | 52.17800 | 32247 ft | 442 kts | 118° |
| 2026-04-23 12:13 | 25.69602 | 52.20827 | 32377 ft | 445 kts | 117° |
| 2026-04-23 12:13 | 25.68266 | 52.23969 | 32507 ft | 448 kts | 117° |
| 2026-04-23 12:14 | 25.66941 | 52.27093 | 32634 ft | 451 kts | 117° |
| 2026-04-23 12:14 | 25.65587 | 52.30290 | 32747 ft | 455 kts | 117° |
| 2026-04-23 12:14 | 25.64259 | 52.33433 | 32891 ft | 458 kts | 117° |
| 2026-04-23 12:14 | 25.62881 | 52.36690 | 33016 ft | 461 kts | 117° |
| 2026-04-23 12:15 | 25.61512 | 52.39884 | 33142 ft | 465 kts | 118° |
| 2026-04-23 12:15 | 25.60019 | 52.43104 | 33277 ft | 468 kts | 121° |
| 2026-04-23 12:15 | 25.58451 | 52.46248 | 33405 ft | 470 kts | 122° |
| 2026-04-23 12:15 | 25.56826 | 52.49366 | 33536 ft | 473 kts | 123° |
| 2026-04-23 12:16 | 25.55447 | 52.51984 | 33649 ft | 476 kts | 123° |
| 2026-04-23 12:16 | 25.53926 | 52.54903 | 33773 ft | 478 kts | 122° |
| 2026-04-23 12:16 | 25.52585 | 52.57501 | 33868 ft | 481 kts | 122° |
| 2026-04-23 12:17 | 25.50365 | 52.61893 | 34037 ft | 483 kts | 121° |
| 2026-04-23 12:17 | 25.47094 | 52.68460 | 34262 ft | 489 kts | 122° |
| 2026-04-23 12:18 | 25.45419 | 52.71722 | 34368 ft | 492 kts | 122° |
| 2026-04-23 12:18 | 25.43685 | 52.75027 | 34489 ft | 494 kts | 123° |
| 2026-04-23 12:18 | 25.41917 | 52.78278 | 34598 ft | 497 kts | 124° |
| 2026-04-23 12:18 | 25.40101 | 52.81541 | 34731 ft | 498 kts | 124° |
| 2026-04-23 12:19 | 25.38264 | 52.84788 | 34841 ft | 500 kts | 124° |
| 2026-04-23 12:19 | 25.36427 | 52.88020 | 34860 ft | 498 kts | 124° |
| 2026-04-23 12:19 | 25.32776 | 52.94499 | 34843 ft | 496 kts | 124° |
| 2026-04-23 12:20 | 25.29685 | 53.01343 | 34851 ft | 499 kts | 116° |
| 2026-04-23 12:20 | 25.26814 | 53.08401 | 34849 ft | 499 kts | 116° |
| 2026-04-23 12:21 | 25.23977 | 53.15332 | 34847 ft | 499 kts | 116° |
| 2026-04-23 12:21 | 25.21101 | 53.22333 | 34850 ft | 500 kts | 116° |
| 2026-04-23 12:22 | 25.18157 | 53.29261 | 34832 ft | 498 kts | 122° |
| 2026-04-23 12:22 | 25.14068 | 53.35392 | 34831 ft | 493 kts | 133° |
| 2026-04-23 12:23 | 25.09690 | 53.41220 | 34826 ft | 494 kts | 133° |
| 2026-04-23 12:23 | 25.05336 | 53.47040 | 34828 ft | 494 kts | 133° |
| 2026-04-23 12:24 | 25.00956 | 53.52887 | 34826 ft | 494 kts | 133° |
| 2026-04-23 12:24 | 24.96578 | 53.58722 | 34812 ft | 494 kts | 133° |
| 2026-04-23 12:25 | 24.94103 | 53.61311 | 34810 ft | 484 kts | 152° |
| 2026-04-23 12:25 | 24.91118 | 53.62822 | 34811 ft | 465 kts | 173° |
| 2026-04-23 12:25 | 24.87983 | 53.63102 | 34809 ft | 445 kts | 194° |
| 2026-04-23 12:25 | 24.84952 | 53.62545 | 34808 ft | 440 kts | 198° |
| 2026-04-23 12:26 | 24.78929 | 53.61321 | 34804 ft | 443 kts | 196° |
| 2026-04-23 12:26 | 24.75813 | 53.61142 | 34785 ft | 456 kts | 181° |
| 2026-04-23 12:26 | 24.72604 | 53.61510 | 34791 ft | 458 kts | 181° |
| 2026-04-23 12:27 | 24.66292 | 53.62047 | 34794 ft | 458 kts | 182° |
| 2026-04-23 12:27 | 24.59875 | 53.62506 | 34802 ft | 459 kts | 182° |
| 2026-04-23 12:28 | 24.53537 | 53.63017 | 34806 ft | 461 kts | 182° |
| 2026-04-23 12:28 | 24.47088 | 53.63581 | 34809 ft | 461 kts | 182° |
| 2026-04-23 12:29 | 24.40763 | 53.64140 | 34821 ft | 462 kts | 182° |
| 2026-04-23 12:29 | 24.34387 | 53.64690 | 34804 ft | 463 kts | 182° |
| 2026-04-23 12:30 | 24.28000 | 53.65229 | 34791 ft | 465 kts | 182° |
| 2026-04-23 12:30 | 24.21624 | 53.65770 | 34746 ft | 464 kts | 182° |
| 2026-04-23 12:31 | 24.18410 | 53.66043 | 34224 ft | 461 kts | 182° |
| 2026-04-23 12:31 | 24.15180 | 53.66320 | 33553 ft | 461 kts | 181° |
| 2026-04-23 12:31 | 24.11971 | 53.66594 | 32810 ft | 461 kts | 181° |
| 2026-04-23 12:31 | 24.08788 | 53.66864 | 32214 ft | 458 kts | 181° |
| 2026-04-23 12:32 | 24.05620 | 53.67135 | 31691 ft | 454 kts | 182° |
| 2026-04-23 12:32 | 24.02495 | 53.67401 | 31142 ft | 450 kts | 182° |
| 2026-04-23 12:32 | 23.99370 | 53.67670 | 30604 ft | 446 kts | 182° |
| 2026-04-23 12:32 | 23.96297 | 53.67932 | 30083 ft | 443 kts | 182° |
| 2026-04-23 12:33 | 23.93226 | 53.68191 | 29494 ft | 439 kts | 182° |
| 2026-04-23 12:33 | 23.90209 | 53.68443 | 28940 ft | 435 kts | 181° |
| 2026-04-23 12:33 | 23.87201 | 53.68697 | 28380 ft | 430 kts | 181° |
| 2026-04-23 12:33 | 23.84228 | 53.68951 | 27850 ft | 426 kts | 181° |
| 2026-04-23 12:34 | 23.81288 | 53.69203 | 27303 ft | 421 kts | 181° |
| 2026-04-23 12:34 | 23.78386 | 53.69451 | 26772 ft | 417 kts | 181° |
| 2026-04-23 12:34 | 23.75530 | 53.69694 | 26224 ft | 412 kts | 181° |
| 2026-04-23 12:34 | 23.72664 | 53.69934 | 25705 ft | 408 kts | 181° |
| 2026-04-23 12:35 | 23.69849 | 53.70167 | 25160 ft | 403 kts | 180° |
| 2026-04-23 12:35 | 23.67072 | 53.70397 | 24633 ft | 399 kts | 180° |
| 2026-04-23 12:35 | 23.64314 | 53.70630 | 24119 ft | 395 kts | 180° |
| 2026-04-23 12:35 | 23.61594 | 53.70861 | 23609 ft | 390 kts | 180° |
| 2026-04-23 12:36 | 23.58902 | 53.71087 | 23071 ft | 386 kts | 180° |
| 2026-04-23 12:36 | 23.56232 | 53.71312 | 22492 ft | 383 kts | 180° |
| 2026-04-23 12:36 | 23.53585 | 53.71534 | 21913 ft | 380 kts | 180° |
| 2026-04-23 12:36 | 23.50959 | 53.71756 | 21370 ft | 377 kts | 179° |
| 2026-04-23 12:37 | 23.48355 | 53.71977 | 20829 ft | 374 kts | 179° |
| 2026-04-23 12:37 | 23.45744 | 53.72196 | 20286 ft | 371 kts | 179° |
| 2026-04-23 12:37 | 23.43177 | 53.72412 | 19776 ft | 368 kts | 179° |
| 2026-04-23 12:37 | 23.40631 | 53.72626 | 19280 ft | 366 kts | 179° |
| 2026-04-23 12:38 | 23.38094 | 53.72839 | 18793 ft | 364 kts | 179° |
| 2026-04-23 12:38 | 23.35579 | 53.73050 | 18327 ft | 361 kts | 179° |
| 2026-04-23 12:38 | 23.33116 | 53.73255 | 17830 ft | 359 kts | 179° |
| 2026-04-23 12:38 | 23.30647 | 53.73462 | 17323 ft | 356 kts | 179° |
| 2026-04-23 12:39 | 23.28164 | 53.73671 | 16827 ft | 352 kts | 179° |
| 2026-04-23 12:39 | 23.25712 | 53.73877 | 16350 ft | 349 kts | 178° |
| 2026-04-23 12:39 | 23.23317 | 53.74079 | 15879 ft | 346 kts | 178° |
| 2026-04-23 12:39 | 23.21143 | 53.74263 | 15453 ft | 344 kts | 178° |
| 2026-04-23 12:40 | 23.19046 | 53.74439 | 15066 ft | 341 kts | 178° |
| 2026-04-23 12:40 | 23.16687 | 53.74634 | 14615 ft | 338 kts | 178° |
| 2026-04-23 12:40 | 23.14767 | 53.74794 | 14268 ft | 335 kts | 178° |
| 2026-04-23 12:40 | 23.12467 | 53.74984 | 13838 ft | 332 kts | 177° |
| 2026-04-23 12:41 | 23.10187 | 53.75172 | 13387 ft | 329 kts | 177° |
| 2026-04-23 12:41 | 23.07915 | 53.75363 | 12935 ft | 325 kts | 177° |
| 2026-04-23 12:41 | 23.05673 | 53.75550 | 12458 ft | 322 kts | 176° |
| 2026-04-23 12:41 | 23.03432 | 53.75737 | 12001 ft | 319 kts | 176° |
| 2026-04-23 12:42 | 23.01231 | 53.75922 | 11560 ft | 315 kts | 176° |
| 2026-04-23 12:42 | 22.99049 | 53.76106 | 10962 ft | 317 kts | 176° |
| 2026-04-23 12:42 | 22.96870 | 53.76291 | 10558 ft | 313 kts | 176° |
| 2026-04-23 12:42 | 22.94703 | 53.76471 | 10259 ft | 305 kts | 176° |
| 2026-04-23 12:43 | 22.92651 | 53.76640 | 10132 ft | 292 kts | 176° |
| 2026-04-23 12:43 | 22.90651 | 53.76806 | 9915 ft | 285 kts | 175° |
| 2026-04-23 12:43 | 22.88671 | 53.76969 | 9851 ft | 285 kts | 175° |
| 2026-04-23 12:43 | 22.87352 | 53.77079 | 9860 ft | 286 kts | 175° |
| 2026-04-23 12:44 | 22.85332 | 53.77246 | 9859 ft | 286 kts | 175° |
| 2026-04-23 12:44 | 22.83351 | 53.77412 | 9858 ft | 286 kts | 175° |
| 2026-04-23 12:44 | 22.81368 | 53.77578 | 9858 ft | 286 kts | 175° |
| 2026-04-23 12:44 | 22.79403 | 53.77743 | 9871 ft | 286 kts | 175° |
| 2026-04-23 12:45 | 22.77420 | 53.77908 | 9856 ft | 286 kts | 175° |
| 2026-04-23 12:45 | 22.75431 | 53.78075 | 9856 ft | 286 kts | 175° |
| 2026-04-23 12:45 | 22.73424 | 53.78243 | 9856 ft | 287 kts | 175° |
| 2026-04-23 12:45 | 22.71461 | 53.78407 | 9852 ft | 281 kts | 175° |
| 2026-04-23 12:46 | 22.69560 | 53.78564 | 9854 ft | 262 kts | 175° |
| 2026-04-23 12:46 | 22.67800 | 53.78711 | 9856 ft | 248 kts | 175° |
| 2026-04-23 12:46 | 22.66094 | 53.78854 | 9855 ft | 246 kts | 175° |
| 2026-04-23 12:46 | 22.64381 | 53.78998 | 9856 ft | 245 kts | 175° |
| 2026-04-23 12:47 | 22.62701 | 53.79139 | 9861 ft | 245 kts | 175° |
| 2026-04-23 12:47 | 22.60984 | 53.79283 | 9864 ft | 245 kts | 175° |
| 2026-04-23 12:47 | 22.59279 | 53.79423 | 9825 ft | 246 kts | 175° |
| 2026-04-23 12:47 | 22.57579 | 53.79563 | 9569 ft | 244 kts | 175° |
| 2026-04-23 12:48 | 22.55859 | 53.79705 | 8936 ft | 250 kts | 175° |
| 2026-04-23 12:48 | 22.54171 | 53.79845 | 8323 ft | 242 kts | 176° |
| 2026-04-23 12:48 | 22.52534 | 53.79984 | 7691 ft | 228 kts | 174° |
| 2026-04-23 12:48 | 22.51120 | 53.80571 | 7139 ft | 218 kts | 138° |
| 2026-04-23 12:49 | 22.50432 | 53.82000 | 6607 ft | 220 kts | 101° |
| 2026-04-23 12:49 | 22.50390 | 53.83678 | 5803 ft | 230 kts | 89° |
| 2026-04-23 12:49 | 22.50556 | 53.85454 | 4960 ft | 239 kts | 85° |
| 2026-04-23 12:49 | 22.50587 | 53.85719 | 4843 ft | 239 kts | 85° |
| 2026-04-23 12:50 | 22.50551 | 53.87142 | 4227 ft | 231 kts | 109° |
| 2026-04-23 12:50 | 22.49772 | 53.88546 | 3891 ft | 206 kts | 137° |
| 2026-04-23 12:51 | 22.48702 | 53.89347 | 3944 ft | 171 kts | 159° |
| 2026-04-23 12:51 | 22.47613 | 53.89653 | 3999 ft | 161 kts | 176° |
| 2026-04-23 12:51 | 22.46497 | 53.89546 | 4074 ft | 160 kts | 195° |
| 2026-04-23 12:51 | 22.45505 | 53.89054 | 4142 ft | 160 kts | 213° |
| 2026-04-23 12:52 | 22.44795 | 53.88341 | 4203 ft | 161 kts | 230° |
| 2026-04-23 12:52 | 22.44239 | 53.87229 | 4280 ft | 164 kts | 249° |
| 2026-04-23 12:52 | 22.44010 | 53.86013 | 4340 ft | 166 kts | 257° |
| 2026-04-23 12:52 | 22.43867 | 53.84784 | 4419 ft | 167 kts | 260° |
| 2026-04-23 12:53 | 22.43734 | 53.83527 | 4491 ft | 166 kts | 259° |
| 2026-04-23 12:53 | 22.43603 | 53.82282 | 4561 ft | 167 kts | 260° |
| 2026-04-23 12:53 | 22.43469 | 53.81037 | 4632 ft | 167 kts | 259° |
| 2026-04-23 12:53 | 22.43335 | 53.79797 | 4702 ft | 167 kts | 259° |
| 2026-04-23 12:54 | 22.43332 | 53.78539 | 4766 ft | 169 kts | 275° |
| 2026-04-23 12:54 | 22.43701 | 53.77316 | 4822 ft | 174 kts | 295° |
| 2026-04-23 12:54 | 22.44467 | 53.76304 | 4843 ft | 178 kts | 317° |
| 2026-04-23 12:54 | 22.45553 | 53.75657 | 4866 ft | 180 kts | 341° |
| 2026-04-23 12:55 | 22.46790 | 53.75494 | 4865 ft | 181 kts | 5° |
| 2026-04-23 12:55 | 22.48000 | 53.75852 | 4864 ft | 180 kts | 28° |
| 2026-04-23 12:55 | 22.48980 | 53.76664 | 4864 ft | 178 kts | 51° |
| 2026-04-23 12:55 | 22.49607 | 53.77802 | 4849 ft | 175 kts | 74° |
| 2026-04-23 12:56 | 22.49870 | 53.79081 | 4869 ft | 175 kts | 85° |
| 2026-04-23 12:56 | 22.50027 | 53.80388 | 4868 ft | 174 kts | 87° |
| 2026-04-23 12:56 | 22.50164 | 53.81679 | 4868 ft | 174 kts | 86° |
| 2026-04-23 12:56 | 22.50302 | 53.82983 | 4862 ft | 174 kts | 87° |
| 2026-04-23 12:57 | 22.50439 | 53.84275 | 4860 ft | 174 kts | 86° |
| 2026-04-23 12:57 | 22.50581 | 53.85572 | 4867 ft | 174 kts | 84° |
| 2026-04-23 12:57 | 22.50992 | 53.86800 | 4847 ft | 173 kts | 70° |
| 2026-04-23 12:57 | 22.51194 | 53.88019 | 4623 ft | 160 kts | 90° |
| 2026-04-23 12:58 | 22.51238 | 53.89268 | 3993 ft | 174 kts | 91° |
| 2026-04-23 12:58 | 22.51276 | 53.90634 | 3245 ft | 188 kts | 91° |
| 2026-04-23 12:58 | 22.51251 | 53.92094 | 2449 ft | 200 kts | 105° |
| 2026-04-23 12:58 | 22.50478 | 53.93162 | 2259 ft | 173 kts | 152° |
| 2026-04-23 12:59 | 22.49399 | 53.93493 | 2119 ft | 157 kts | 179° |
| 2026-04-23 12:59 | 22.48359 | 53.93274 | 1921 ft | 153 kts | 205° |
| 2026-04-23 12:59 | 22.47539 | 53.92566 | 1866 ft | 157 kts | 231° |
| 2026-04-23 12:59 | 22.47120 | 53.91497 | 1863 ft | 160 kts | 256° |
| 2026-04-23 13:00 | 22.46983 | 53.90295 | 1849 ft | 159 kts | 259° |
| 2026-04-23 13:00 | 22.46787 | 53.89168 | 1861 ft | 157 kts | 254° |
| 2026-04-23 13:00 | 22.46574 | 53.87992 | 1861 ft | 158 kts | 256° |
| 2026-04-23 13:00 | 22.46352 | 53.86806 | 1856 ft | 168 kts | 255° |
| 2026-04-23 13:01 | 22.46100 | 53.85494 | 1864 ft | 187 kts | 256° |
| 2026-04-23 13:01 | 22.46185 | 53.84063 | 1820 ft | 195 kts | 287° |
| 2026-04-23 13:01 | 22.46985 | 53.82991 | 1673 ft | 181 kts | 325° |
| 2026-04-23 13:01 | 22.48252 | 53.82591 | 1553 ft | 205 kts | 2° |
| 2026-04-23 13:02 | 22.49507 | 53.83098 | 1445 ft | 181 kts | 41° |
| 2026-04-23 13:02 | 22.50218 | 53.84158 | 1369 ft | 171 kts | 68° |
| 2026-04-23 13:02 | 22.50732 | 53.85323 | 1270 ft | 177 kts | 66° |
| 2026-04-23 13:02 | 22.51061 | 53.86684 | 1158 ft | 199 kts | 90° |
| 2026-04-23 13:03 | 22.51105 | 53.88182 | 997 ft | 203 kts | 92° |
| 2026-04-23 13:03 | 22.51166 | 53.89621 | 898 ft | 177 kts | 90° |
| 2026-04-23 13:03 | 22.51226 | 53.90860 | 826 ft | 159 kts | 88° |
| 2026-04-23 13:03 | 22.51283 | 53.92041 | 725 ft | 154 kts | 89° |
| 2026-04-23 13:04 | 22.51353 | 53.93185 | 530 ft | 149 kts | 91° |
| 2026-04-23 13:04 | 22.51386 | 53.94308 | 394 ft | 150 kts | 89° |
| 2026-04-23 13:04 | 22.51394 | 53.94452 | 378 ft | 150 kts | 91° |
| 2026-04-23 13:04 | 22.51432 | 53.95266 | 299 ft | 148 kts | 95° |
| 2026-04-23 13:05 | 22.51470 | 53.96288 | 276 ft | 114 kts | 86° |
| 2026-04-23 13:05 | 22.51506 | 53.96938 | 280 ft | 63 kts | 88° |
| 2026-04-23 13:05 | 22.51521 | 53.97234 | 281 ft | 32 kts | 87° |
| 2026-04-23 13:05 | 22.51522 | 53.97256 | 281 ft | 37 kts | 87° |